Time;durP1;ratioP1;P1;durP2;ratioP2;P2;SDS_P1;SDS_P2;PMS_P1;PMS_P2;Temp;Humidity;BMP_temperature;BMP_pressure;BME280_temperature;BME280_humidity;BME280_pressure;Samples;Min_cycle;Max_cycle;Signal;HPM_P1;HPM_P2
2022/11/10 00:00:57;;;;;;;0.00;0.00;;;;;;;17.26;67.17;101511.09;2090656;28;20503;-66
2022/11/10 00:02:18;;;;;;;0.00;0.00;;;;;;;17.27;67.16;101506.41;2091331;28;20091;-67
2022/11/10 00:03:40;;;;;;;0.00;0.00;;;;;;;17.27;67.16;101512.66;2091716;28;20053;-67
2022/11/10 00:05:00;;;;;;;0.00;0.00;;;;;;;17.27;67.36;101520.03;2092568;28;20373;-67
2022/11/10 00:06:21;;;;;;;;;;;;;;;17.12;67.33;101526.47;2093840;28;20059;-66
2022/11/10 00:07:42;;;;;;;0.00;0.00;;;;;;;17.20;67.45;101506.31;2090674;28;20883;-67
2022/11/10 00:09:05;;;;;;;0.00;0.00;;;;;;;17.23;67.31;101516.50;2089544;28;20055;-67
2022/11/10 00:10:26;;;;;;;0.00;0.00;;;;;;;17.24;67.27;101513.38;2089603;28;20152;-67
2022/11/10 00:11:48;;;;;;;0.00;0.00;;;;;;;17.24;67.06;101518.06;2091474;28;20056;-67
2022/11/10 00:13:09;;;;;;;0.00;0.00;;;;;;;17.24;67.17;101518.06;2091056;28;20053;-67
2022/11/10 00:17:50;;;;;;;0.00;0.00;;;;;;;17.23;67.29;101533.66;2090588;28;20076;-66
2022/11/10 00:19:11;;;;;;;0.00;0.00;;;;;;;17.24;67.17;101537.16;2095416;28;20043;-67
2022/11/10 00:20:32;;;;;;;0.00;0.00;;;;;;;17.23;67.14;101544.56;2092081;28;20052;-67
2022/11/10 00:21:53;;;;;;;0.00;0.00;;;;;;;17.23;67.35;101550.03;2089043;28;20079;-67
2022/11/10 00:23:14;;;;;;;0.00;0.00;;;;;;;17.25;67.22;101560.59;2088864;28;20052;-67
2022/11/10 00:24:36;;;;;;;0.00;0.00;;;;;;;17.24;67.14;101562.50;2091267;28;20138;-67
2022/11/10 00:25:57;;;;;;;0.00;0.00;;;;;;;17.25;67.02;101552.41;2093071;28;20103;-67
2022/11/10 00:27:19;;;;;;;0.00;0.00;;;;;;;17.24;67.21;101551.59;2094337;28;20129;-67
2022/11/10 00:28:39;;;;;;;0.00;0.00;;;;;;;17.25;67.06;101557.84;2091577;28;20057;-67
2022/11/10 00:30:01;;;;;;;0.00;0.00;;;;;;;17.23;67.00;101554.69;2094752;28;20058;-67
2022/11/10 00:31:22;;;;;;;0.00;0.00;;;;;;;17.24;66.94;101554.31;2082444;28;20046;-67
2022/11/10 00:32:46;;;;;;;0.00;0.00;;;;;;;17.25;67.17;101553.16;2084237;28;20436;-67
2022/11/10 00:34:12;;;;;;;0.00;0.00;;;;;;;17.26;67.08;101559.41;2091110;28;20049;-66
2022/11/10 00:35:32;;;;;;;0.00;0.00;;;;;;;17.25;67.06;101555.13;2090530;28;20095;-67
2022/11/10 00:36:53;;;;;;;;;;;;;;;17.10;67.36;101556.06;2090284;28;20518;-67
2022/11/10 00:38:14;;;;;;;0.00;0.00;;;;;;;17.19;67.52;101565.56;2093322;28;20465;-67
2022/11/10 00:39:35;;;;;;;0.00;0.00;;;;;;;17.20;66.93;101567.16;2094055;28;20059;-67
2022/11/10 00:40:57;;;;;;;0.00;0.00;;;;;;;17.23;66.86;101560.16;2096025;28;20047;-66
2022/11/10 00:42:18;;;;;;;0.00;0.00;;;;;;;17.22;67.36;101567.53;2093048;28;20044;-67
2022/11/10 00:43:40;;;;;;;0.00;0.00;;;;;;;17.22;67.11;101570.28;2090646;28;20164;-67
2022/11/10 00:45:00;;;;;;;0.00;0.00;;;;;;;17.20;67.20;101574.53;2092874;28;20060;-67
2022/11/10 00:46:21;;;;;;;0.00;0.00;;;;;;;17.22;67.25;101580.44;2089376;28;20053;-67
2022/11/10 00:47:45;;;;;;;0.00;0.00;;;;;;;17.23;67.03;101582.78;2091334;28;20053;-67
2022/11/10 00:49:06;;;;;;;0.00;0.00;;;;;;;17.23;67.36;101571.88;2095764;28;20079;-67
2022/11/10 00:50:29;;;;;;;0.00;0.00;;;;;;;17.25;67.12;101582.41;2091398;28;20496;-67
2022/11/10 00:51:50;;;;;;;0.00;0.00;;;;;;;17.23;66.97;101577.31;2092239;28;20612;-67
2022/11/10 00:53:11;;;;;;;0.00;0.00;;;;;;;17.23;66.79;101584.72;2088347;28;20059;-67
2022/11/10 00:54:31;;;;;;;0.00;0.00;;;;;;;17.22;67.12;101585.88;2089055;28;20052;-68
2022/11/10 00:55:53;;;;;;;0.00;0.00;;;;;;;17.23;67.18;101582.78;2088618;28;20092;-66
2022/11/10 00:57:14;;;;;;;0.00;0.00;;;;;;;17.23;67.35;101577.31;2094386;28;20778;-67
2022/11/10 00:58:36;;;;;;;0.00;0.00;;;;;;;17.24;66.83;101580.81;2090141;28;20528;-67
2022/11/10 00:59:57;;;;;;;0.00;0.00;;;;;;;17.23;67.21;101579.25;2090500;28;20048;-67
2022/11/10 01:01:19;;;;;;;0.00;0.00;;;;;;;17.24;66.88;101576.16;2092997;28;20556;-66
2022/11/10 01:02:40;;;;;;;0.00;0.00;;;;;;;17.24;67.06;101586.28;2093916;28;20101;-67
2022/11/10 01:04:02;;;;;;;0.00;0.00;;;;;;;17.24;67.08;101589.00;2088720;28;20166;-67
2022/11/10 01:05:23;;;;;;;0.00;0.00;;;;;;;17.23;66.92;101585.50;2090629;28;20055;-66
2022/11/10 01:06:47;;;;;;;0.00;0.00;;;;;;;17.24;67.10;101591.75;2089550;28;20122;-66
2022/11/10 01:08:08;;;;;;;0.00;0.00;;;;;;;17.23;66.93;101587.44;2090384;28;20559;-66
2022/11/10 01:09:29;;;;;;;0.00;0.00;;;;;;;17.23;67.01;101588.25;2092285;28;20044;-66
2022/11/10 01:10:50;;;;;;;0.00;0.00;;;;;;;17.23;67.07;101598.38;2092989;28;20098;-67
2022/11/10 01:12:11;;;;;;;0.00;0.00;;;;;;;17.23;67.28;101590.19;2095245;28;20114;-67
2022/11/10 01:13:32;;;;;;;0.00;0.00;;;;;;;17.23;67.14;101598.38;2089265;28;20500;-68
2022/11/10 01:14:53;;;;;;;0.00;0.00;;;;;;;17.24;67.06;101597.19;2094762;28;20459;-67
2022/11/10 01:16:18;;;;;;;0.00;0.00;;;;;;;17.24;67.00;101591.75;2093142;28;20102;-67
2022/11/10 01:17:39;;;;;;;0.00;0.00;;;;;;;17.23;67.10;101592.91;2093726;28;20419;-67
2022/11/10 01:19:01;;;;;;;0.00;0.00;;;;;;;17.23;67.06;101601.09;2093001;28;20075;-67
2022/11/10 01:20:23;;;;;;;0.00;0.00;;;;;;;17.23;67.30;101598.38;2094348;28;20083;-67
2022/11/10 01:21:46;;;;;;;0.00;0.00;;;;;;;17.23;67.07;101598.38;2094789;28;20545;-67
2022/11/10 01:23:07;;;;;;;0.00;0.00;;;;;;;17.23;67.19;101601.09;2094573;28;20656;-67
2022/11/10 01:24:28;;;;;;;0.00;0.00;;;;;;;17.22;67.07;101600.28;2089834;28;20144;-67
2022/11/10 01:25:49;;;;;;;0.00;0.00;;;;;;;17.22;66.99;101602.25;2092794;28;20049;-67
2022/11/10 01:27:11;;;;;;;0.00;0.00;;;;;;;17.23;67.06;101603.81;2091111;28;20087;-67
2022/11/10 01:28:33;;;;;;;0.00;0.00;;;;;;;17.22;66.75;101603.03;2093524;28;20052;-67
2022/11/10 01:29:54;;;;;;;0.00;0.00;;;;;;;17.22;66.97;101607.72;2090879;28;20049;-67
2022/11/10 01:31:17;;;;;;;0.00;0.00;;;;;;;17.22;66.95;101608.47;2094154;28;20187;-67
2022/11/10 01:32:38;;;;;;;0.00;0.00;;;;;;;17.23;66.76;101606.56;2090679;28;20055;-67
2022/11/10 01:34:00;;;;;;;0.00;0.00;;;;;;;17.22;67.04;101607.72;2088922;28;20041;-67
2022/11/10 01:35:20;;;;;;;0.00;0.00;;;;;;;17.22;67.01;101613.19;2091609;28;20123;-67
2022/11/10 01:36:41;;;;;;;;;;;;;;;17.07;67.32;101611.34;2089647;28;20055;-67
2022/11/10 01:38:04;;;;;;;0.00;0.00;;;;;;;17.16;67.12;101618.13;2089277;28;19924;-67
2022/11/10 01:39:24;;;;;;;0.00;0.00;;;;;;;17.18;67.05;101617.78;2094343;28;20114;-67
2022/11/10 01:40:46;;;;;;;0.00;0.00;;;;;;;17.19;66.86;101624.78;2086960;28;20052;-67
2022/11/10 01:42:08;;;;;;;0.00;0.00;;;;;;;17.19;67.01;101616.59;2088282;28;20055;-68
2022/11/10 01:43:28;;;;;;;0.00;0.00;;;;;;;17.19;66.92;101620.13;2094222;28;20090;-67
2022/11/10 01:45:34;;;;;;;0.00;0.00;;;;;;;17.14;66.80;101619.66;2095747;28;20055;-67
2022/11/10 01:46:55;;;;;;;0.00;0.00;;;;;;;17.16;67.21;101628.25;2092890;28;20122;-67
2022/11/10 01:48:22;;;;;;;0.00;0.00;;;;;;;17.18;67.04;101629.47;2089477;28;20056;-67
2022/11/10 01:49:44;;;;;;;0.00;0.00;;;;;;;17.16;67.10;101620.06;2094537;28;20137;-67
2022/11/10 01:51:09;;;;;;;0.00;0.00;;;;;;;17.19;67.23;101619.34;2093547;28;20152;-67
2022/11/10 01:52:32;;;;;;;0.00;0.00;;;;;;;17.18;66.91;101615.03;2093427;28;20055;-66
2022/11/10 01:53:59;;;;;;;0.00;0.00;;;;;;;17.19;66.98;101616.59;2095510;28;20052;-67
2022/11/10 01:55:20;;;;;;;0.00;0.00;;;;;;;17.18;67.15;101618.56;2094770;28;20087;-68
2022/11/10 01:56:45;;;;;;;0.00;0.00;;;;;;;17.19;67.09;101602.97;2095300;28;20058;-68
2022/11/10 01:58:07;;;;;;;0.00;0.00;;;;;;;17.18;67.23;101615.84;2080156;28;20055;-67
2022/11/10 01:59:34;;;;;;;0.00;0.00;;;;;;;17.18;67.14;101613.13;2081430;28;20104;-67
2022/11/10 02:00:55;;;;;;;0.00;0.00;;;;;;;17.18;67.13;101612.31;2086280;28;20080;-67
2022/11/10 02:02:25;;;;;;;0.00;0.00;;;;;;;17.18;66.93;101617.78;2082015;28;20064;-67
2022/11/10 02:03:50;;;;;;;0.00;0.00;;;;;;;17.18;67.09;101615.03;2086659;28;20110;-66
2022/11/10 02:05:10;;;;;;;0.00;0.00;;;;;;;17.17;67.12;101621.66;2086865;28;20519;-67
2022/11/10 02:06:33;;;;;;;;;;;;;;;17.02;67.15;101622.56;2085716;28;20128;-67
2022/11/10 02:07:55;;;;;;;0.00;0.00;;;;;;;17.13;67.15;101626.25;2087964;28;19931;-67
2022/11/10 02:09:18;;;;;;;0.00;0.00;;;;;;;17.15;67.07;101629.41;2087277;28;20103;-67
2022/11/10 02:10:39;;;;;;;0.00;0.00;;;;;;;17.15;67.11;101630.22;2081270;28;20758;-66
2022/11/10 02:12:00;;;;;;;0.00;0.00;;;;;;;17.15;67.19;101632.16;2081362;28;20055;-67
2022/11/10 02:13:21;;;;;;;0.00;0.00;;;;;;;17.16;66.90;101636.44;2088149;28;20041;-67
2022/11/10 02:14:43;;;;;;;0.00;0.00;;;;;;;17.17;67.11;101638.03;2088455;28;20103;-67
2022/11/10 02:16:04;;;;;;;0.00;0.00;;;;;;;17.16;67.04;101642.69;2087490;28;20103;-66
2022/11/10 02:17:25;;;;;;;0.00;0.00;;;;;;;17.15;67.27;101634.88;2083240;28;20079;-67
2022/11/10 02:18:46;;;;;;;0.00;0.00;;;;;;;17.17;67.12;101638.03;2088922;28;20102;-67
2022/11/10 02:20:10;;;;;;;0.00;0.00;;;;;;;17.18;67.06;101645.06;2082022;28;20692;-67
2022/11/10 02:21:33;;;;;;;0.00;0.00;;;;;;;17.17;66.84;101643.50;2083389;28;20056;-67
2022/11/10 02:22:54;;;;;;;0.00;0.00;;;;;;;17.17;67.22;101643.50;2076099;28;20082;-67
2022/11/10 02:24:16;;;;;;;0.00;0.00;;;;;;;17.16;67.30;101642.69;2084847;28;20114;-67
2022/11/10 02:25:37;;;;;;;0.00;0.00;;;;;;;17.18;67.25;101647.78;2086910;28;20103;-66
2022/11/10 02:26:58;;;;;;;0.00;0.00;;;;;;;17.17;67.01;101648.94;2087921;28;20127;-67
2022/11/10 02:28:19;;;;;;;0.00;0.00;;;;;;;17.17;67.19;101651.69;2084079;28;20054;-67
2022/11/10 02:29:40;;;;;;;0.00;0.00;;;;;;;17.16;67.21;101647.34;2082427;28;20079;-66
2022/11/10 02:31:01;;;;;;;0.00;0.00;;;;;;;17.18;66.87;101645.06;2087208;28;20098;-67
2022/11/10 02:32:23;;;;;;;0.00;0.00;;;;;;;17.18;67.07;101650.53;2086612;28;20064;-67
2022/11/10 02:33:44;;;;;;;0.00;0.00;;;;;;;17.17;66.80;101644.25;2086281;28;20159;-67
2022/11/10 02:35:06;;;;;;;0.00;0.00;;;;;;;17.18;67.01;101650.53;2082632;28;20574;-67
2022/11/10 02:36:28;;;;;;;0.00;0.00;;;;;;;17.18;67.05;101650.53;2083348;28;20052;-67
2022/11/10 02:37:49;;;;;;;0.00;0.00;;;;;;;17.19;66.94;101657.53;2083461;28;20123;-67
2022/11/10 02:39:11;;;;;;;0.00;0.00;;;;;;;17.18;67.27;101653.25;2087012;28;20051;-67
2022/11/10 02:40:31;;;;;;;0.00;0.00;;;;;;;17.17;67.06;101660.63;2086585;28;20100;-67
2022/11/10 02:41:52;;;;;;;0.00;0.00;;;;;;;17.18;66.97;101664.16;2082482;28;20045;-67
2022/11/10 02:43:15;;;;;;;0.00;0.00;;;;;;;17.18;67.02;101670.41;2083798;28;20060;-67
2022/11/10 02:44:37;;;;;;;0.00;0.00;;;;;;;17.19;66.91;101673.91;2081300;28;20049;-67
2022/11/10 02:45:58;;;;;;;0.00;0.00;;;;;;;17.17;66.97;101677.00;2081294;28;20049;-67
2022/11/10 02:47:19;;;;;;;0.00;0.00;;;;;;;17.17;66.96;101674.28;2084663;28;20056;-66
2022/11/10 02:48:41;;;;;;;0.00;0.00;;;;;;;17.18;67.03;101677.81;2085767;28;20129;-68
2022/11/10 02:50:02;;;;;;;0.00;0.00;;;;;;;17.18;67.05;101678.59;2087367;28;20048;-67
2022/11/10 02:51:24;;;;;;;0.00;0.00;;;;;;;17.18;67.05;101678.59;2081431;28;20532;-66
2022/11/10 02:52:44;;;;;;;0.00;0.00;;;;;;;17.19;67.24;101682.09;2088247;28;20519;-67
2022/11/10 02:54:07;;;;;;;;;;;;;;;17.02;67.30;101667.03;2078005;28;20050;-67
2022/11/10 02:55:27;;;;;;;0.00;0.00;;;;;;;17.12;67.15;101674.59;2083160;28;19932;-67
2022/11/10 02:56:50;;;;;;;0.00;0.00;;;;;;;17.14;66.80;101675.00;2086204;28;20054;-67
2022/11/10 02:58:11;;;;;;;0.00;0.00;;;;;;;17.15;67.16;101684.00;2088620;28;20506;-67
2022/11/10 02:59:32;;;;;;;0.00;0.00;;;;;;;17.15;66.97;101684.00;2086644;28;20614;-68
2022/11/10 03:00:54;;;;;;;0.00;0.00;;;;;;;17.16;67.00;101688.28;2094196;28;20056;-67
2022/11/10 03:02:15;;;;;;;0.00;0.00;;;;;;;17.17;66.76;101681.69;2089050;28;20059;-67
2022/11/10 03:03:36;;;;;;;0.00;0.00;;;;;;;17.17;67.11;101698.06;2093257;28;20168;-67
2022/11/10 03:04:57;;;;;;;0.00;0.00;;;;;;;17.17;67.00;101695.34;2092116;28;20488;-68
2022/11/10 03:06:19;;;;;;;0.00;0.00;;;;;;;17.17;67.05;101695.34;2090390;28;20501;-67
2022/11/10 03:07:39;;;;;;;0.00;0.00;;;;;;;17.16;67.18;101697.28;2095176;28;20060;-67
2022/11/10 03:09:00;;;;;;;0.00;0.00;;;;;;;17.17;66.71;101703.53;2088935;28;20049;-67
2022/11/10 03:10:24;;;;;;;0.00;0.00;;;;;;;17.18;67.22;101702.38;2092728;28;20699;-67
2022/11/10 03:11:46;;;;;;;0.00;0.00;;;;;;;17.17;67.45;101709.00;2092777;28;20048;-67
2022/11/10 03:13:07;;;;;;;0.00;0.00;;;;;;;17.17;67.16;101706.25;2090829;28;20056;-68
2022/11/10 03:14:29;;;;;;;0.00;0.00;;;;;;;17.16;66.87;101701.94;2088318;28;20051;-68
2022/11/10 03:15:50;;;;;;;0.00;0.00;;;;;;;17.17;67.15;101698.06;2089281;28;20508;-68
2022/11/10 03:17:10;;;;;;;0.00;0.00;;;;;;;17.18;67.15;101699.63;2088271;28;20049;-68
2022/11/10 03:18:32;;;;;;;0.00;0.00;;;;;;;17.17;67.01;101698.06;2087808;28;20415;-68
2022/11/10 03:19:53;;;;;;;0.00;0.00;;;;;;;17.17;67.01;101703.53;2089258;28;20126;-68
2022/11/10 03:21:14;;;;;;;0.00;0.00;;;;;;;17.16;66.93;101697.28;2088915;28;20092;-68
2022/11/10 03:22:35;;;;;;;0.00;0.00;;;;;;;17.16;66.98;101693.75;2088594;28;20057;-68
2022/11/10 03:23:56;;;;;;;0.00;0.00;;;;;;;17.17;67.09;101698.06;2088780;28;20099;-68
2022/11/10 03:25:18;;;;;;;0.00;0.00;;;;;;;17.17;66.92;101706.25;2089348;28;20053;-68
2022/11/10 03:26:41;;;;;;;0.00;0.00;;;;;;;17.18;66.95;101711.34;2092110;28;20122;-68
2022/11/10 03:28:01;;;;;;;0.00;0.00;;;;;;;17.17;66.87;101719.91;2091822;28;20052;-68
2022/11/10 03:29:22;;;;;;;0.00;0.00;;;;;;;17.17;66.78;101730.81;2092013;28;20102;-69
2022/11/10 03:30:44;;;;;;;0.00;0.00;;;;;;;17.16;66.84;101729.22;2088526;28;20136;-66
2022/11/10 03:32:06;;;;;;;0.00;0.00;;;;;;;17.17;67.00;101733.56;2088799;28;20084;-65
2022/11/10 03:33:26;;;;;;;0.00;0.00;;;;;;;17.17;66.68;101739.00;2089580;28;20048;-68
2022/11/10 03:34:47;;;;;;;0.00;0.00;;;;;;;17.17;67.08;101733.56;2088833;28;20053;-66
2022/11/10 03:36:09;;;;;;;0.00;0.00;;;;;;;17.17;66.93;101734.31;2089230;28;20049;-66
2022/11/10 03:37:30;;;;;;;0.00;0.00;;;;;;;17.17;67.09;101737.06;2080201;28;20161;-66
2022/11/10 03:38:52;;;;;;;0.00;0.00;;;;;;;17.17;66.91;101739.00;2085965;28;20067;-67
2022/11/10 03:40:12;;;;;;;0.00;0.00;;;;;;;17.17;66.94;101744.47;2094662;28;20059;-67
2022/11/10 03:41:33;;;;;;;0.00;0.00;;;;;;;17.16;66.94;101746.41;2088893;28;20408;-67
2022/11/10 03:42:55;;;;;;;0.00;0.00;;;;;;;17.18;66.95;101754.22;2088186;28;20889;-66
2022/11/10 03:44:16;;;;;;;0.00;0.00;;;;;;;17.17;67.21;101755.38;2088565;28;20102;-67
2022/11/10 03:45:38;;;;;;;0.00;0.00;;;;;;;17.17;66.64;101760.84;2088970;28;20053;-67
2022/11/10 03:47:01;;;;;;;0.00;0.00;;;;;;;17.18;66.97;101754.22;2088591;28;20052;-68
2022/11/10 03:48:23;;;;;;;0.00;0.00;;;;;;;17.16;66.64;101751.84;2088795;28;20049;-67
2022/11/10 03:49:43;;;;;;;0.00;0.00;;;;;;;17.16;67.08;101751.06;2090898;28;20060;-67
2022/11/10 03:51:05;;;;;;;0.00;0.00;;;;;;;17.17;66.90;101755.38;2089300;28;20394;-67
2022/11/10 03:52:26;;;;;;;0.00;0.00;;;;;;;17.18;66.90;101754.22;2089343;28;20067;-67
2022/11/10 03:53:48;;;;;;;0.00;0.00;;;;;;;17.16;66.76;101757.31;2088918;28;20045;-67
2022/11/10 03:55:11;;;;;;;0.00;0.00;;;;;;;17.17;66.82;101755.38;2089152;28;20053;-67
2022/11/10 03:56:32;;;;;;;0.00;0.00;;;;;;;17.16;66.95;101754.59;2089298;28;20558;-68
2022/11/10 03:57:52;;;;;;;0.00;0.00;;;;;;;17.16;66.81;101756.50;2087774;28;20435;-68
2022/11/10 03:59:15;;;;;;;;;;;;;;;17.00;67.29;101758.59;2089153;28;20107;-67
2022/11/10 04:00:36;;;;;;;0.00;0.00;;;;;;;17.09;67.04;101756.41;2088089;28;20636;-68
2022/11/10 04:01:57;;;;;;;0.00;0.00;;;;;;;17.12;66.89;101761.94;2086069;28;20067;-68
2022/11/10 04:03:19;;;;;;;0.00;0.00;;;;;;;17.12;67.00;101767.38;2087710;28;20106;-67
2022/11/10 04:09:55;;;;;;;0.00;0.00;;;;;;;17.10;66.83;101774.34;2054654;28;20053;-67
2022/11/10 04:15:40;;;;;;;0.00;0.00;;;;;;;17.12;66.72;101772.03;2062897;28;20154;-67
2022/11/10 04:16:17;;;;;;;0.00;0.00;;;;;;;17.07;67.20;101770.41;2081332;28;20140;-67
2022/11/10 04:17:39;;;;;;;0.00;0.00;;;;;;;17.10;66.86;101779.81;2086377;28;20156;-67
2022/11/10 04:19:00;;;;;;;0.00;0.00;;;;;;;17.11;67.13;101773.22;2081206;28;20052;-67
2022/11/10 04:20:21;;;;;;;0.00;0.00;;;;;;;17.11;66.86;101778.66;2088312;28;20059;-68
2022/11/10 04:21:42;;;;;;;0.00;0.00;;;;;;;17.11;66.94;101781.41;2088427;28;20670;-68
2022/11/10 04:24:42;;;;;;;0.00;0.00;;;;;;;17.09;67.16;101783.69;2088480;28;20083;-68
2022/11/10 04:27:44;;;;;;;;;;;;;;;16.94;67.14;101779.09;2086554;28;20080;-67
2022/11/10 04:29:07;;;;;;;0.00;0.00;;;;;;;17.04;67.18;101778.53;2085444;28;19983;-68
2022/11/10 04:30:30;;;;;;;0.00;0.00;;;;;;;17.08;66.84;101782.09;2078571;28;20138;-67
2022/11/10 04:31:51;;;;;;;0.00;0.00;;;;;;;17.08;67.03;101787.56;2082058;28;20050;-68
2022/11/10 04:33:11;;;;;;;0.00;0.00;;;;;;;17.09;66.92;101780.97;2087665;28;20472;-67
2022/11/10 04:34:32;;;;;;;0.00;0.00;;;;;;;17.09;66.86;101778.22;2086894;28;20047;-67
2022/11/10 04:35:53;;;;;;;0.00;0.00;;;;;;;17.08;67.00;101782.09;2087287;28;20056;-67
2022/11/10 04:37:14;;;;;;;0.00;0.00;;;;;;;17.09;67.09;101791.88;2083711;28;20182;-67
2022/11/10 04:38:35;;;;;;;0.00;0.00;;;;;;;17.11;67.04;101792.31;2085857;28;20080;-68
2022/11/10 04:39:56;;;;;;;0.00;0.00;;;;;;;17.10;67.16;101785.25;2088500;28;20649;-68
2022/11/10 04:41:18;;;;;;;0.00;0.00;;;;;;;17.12;66.92;101793.88;2086149;28;20061;-67
2022/11/10 04:42:38;;;;;;;0.00;0.00;;;;;;;17.11;66.82;101797.78;2088446;28;20052;-67
2022/11/10 04:44:00;;;;;;;0.00;0.00;;;;;;;17.11;66.93;101808.69;2087222;28;20092;-67
2022/11/10 04:45:20;;;;;;;0.00;0.00;;;;;;;17.12;66.90;101796.59;2086238;28;20055;-67
2022/11/10 04:46:43;;;;;;;0.00;0.00;;;;;;;17.11;67.00;101797.78;2086480;28;20060;-67
2022/11/10 04:48:03;;;;;;;0.00;0.00;;;;;;;17.11;67.10;101805.97;2087520;28;20144;-67
2022/11/10 04:49:25;;;;;;;0.00;0.00;;;;;;;17.12;67.04;101804.78;2087314;28;20049;-68
2022/11/10 04:50:45;;;;;;;0.00;0.00;;;;;;;17.12;66.98;101802.06;2087002;28;20122;-67
2022/11/10 04:52:06;;;;;;;;;;;;;;;16.96;67.21;101799.44;2086259;28;20103;-68
2022/11/10 04:53:27;;;;;;;0.00;0.00;;;;;;;17.05;67.12;101796.47;2084020;28;19925;-68
2022/11/10 04:54:48;;;;;;;;;;;;;;;16.93;67.10;101804.81;2086383;28;20132;-68
2022/11/10 04:56:13;;;;;;;0.00;0.00;;;;;;;17.03;67.21;101804.25;2088300;28;19974;-68
2022/11/10 04:57:34;;;;;;;0.00;0.00;;;;;;;17.05;67.01;101810.09;2086277;28;20052;-67
2022/11/10 04:58:56;;;;;;;0.00;0.00;;;;;;;17.07;67.05;101808.59;2090926;28;20055;-67
2022/11/10 05:00:17;;;;;;;0.00;0.00;;;;;;;17.08;66.94;101806.66;2094908;28;20051;-67
2022/11/10 05:01:39;;;;;;;0.00;0.00;;;;;;;17.08;66.84;101804.72;2093740;28;20125;-66
2022/11/10 05:03:02;;;;;;;0.00;0.00;;;;;;;17.09;66.96;101802.78;2094009;28;20040;-67
2022/11/10 05:04:24;;;;;;;0.00;0.00;;;;;;;17.08;67.06;101804.72;2091736;28;20056;-67
2022/11/10 05:05:44;;;;;;;0.00;0.00;;;;;;;17.09;66.82;101800.06;2090993;28;20139;-67
2022/11/10 05:07:05;;;;;;;0.00;0.00;;;;;;;17.08;67.10;101802.00;2089762;28;20051;-67
2022/11/10 05:08:27;;;;;;;0.00;0.00;;;;;;;17.08;66.97;101804.72;2088391;28;20048;-67
2022/11/10 05:09:47;;;;;;;0.00;0.00;;;;;;;17.09;67.06;101805.53;2093098;28;20049;-67
2022/11/10 05:11:09;;;;;;;0.00;0.00;;;;;;;17.09;67.07;101800.84;2092121;28;20056;-67
2022/11/10 05:12:29;;;;;;;0.00;0.00;;;;;;;17.09;67.02;101795.41;2094691;28;20523;-67
2022/11/10 05:13:50;;;;;;;0.00;0.00;;;;;;;17.08;66.71;101796.53;2088661;28;20068;-68
2022/11/10 05:15:11;;;;;;;0.00;0.00;;;;;;;17.10;66.89;101798.91;2091949;28;20466;-67
2022/11/10 05:16:32;;;;;;;0.00;0.00;;;;;;;17.12;67.03;101802.06;2091828;28;20055;-67
2022/11/10 05:17:53;;;;;;;0.00;0.00;;;;;;;17.11;66.97;101798.53;2091676;28;20047;-67
2022/11/10 05:19:16;;;;;;;0.00;0.00;;;;;;;17.11;66.91;101798.53;2086988;28;20087;-67
2022/11/10 05:20:37;;;;;;;0.00;0.00;;;;;;;17.11;66.79;101803.22;2086394;28;20107;-67
2022/11/10 05:21:58;;;;;;;0.00;0.00;;;;;;;17.11;67.05;101797.78;2088898;28;20164;-67
2022/11/10 05:23:37;;;;;;;0.00;0.00;;;;;;;17.11;66.71;101795.81;2093719;28;20138;-67
2022/11/10 05:24:59;;;;;;;0.00;0.00;;;;;;;17.09;67.02;101795.41;2092875;28;20719;-67
2022/11/10 05:26:20;;;;;;;0.00;0.00;;;;;;;17.10;66.83;101810.63;2095272;28;20049;-67
2022/11/10 05:27:41;;;;;;;0.00;0.00;;;;;;;17.11;66.89;101805.97;2091933;28;20059;-67
2022/11/10 05:29:02;;;;;;;;;;;;;;;16.95;67.19;101806.00;2095128;28;20071;-67
2022/11/10 05:30:22;;;;;;;0.00;0.00;;;;;;;17.04;67.17;101808.53;2089995;28;19970;-67
2022/11/10 05:31:43;;;;;;;0.00;0.00;;;;;;;17.06;67.07;101811.69;2093613;28;20056;-67
2022/11/10 05:33:10;;;;;;;0.00;0.00;;;;;;;17.07;66.89;101807.81;2088271;28;20594;-67
2022/11/10 05:34:33;;;;;;;0.00;0.00;;;;;;;17.08;67.03;101804.72;2089940;28;20052;-67
2022/11/10 05:35:55;;;;;;;0.00;0.00;;;;;;;17.08;67.11;101812.09;2087152;28;20531;-67
2022/11/10 05:37:15;;;;;;;0.00;0.00;;;;;;;17.09;67.07;101816.44;2094410;28;20047;-67
2022/11/10 05:38:36;;;;;;;0.00;0.00;;;;;;;17.08;67.18;101821.09;2094013;28;20127;-67
2022/11/10 05:40:04;;;;;;;0.00;0.00;;;;;;;17.08;67.00;101810.19;2095180;28;20405;-67
2022/11/10 05:41:25;;;;;;;0.00;0.00;;;;;;;17.10;67.09;101815.28;2088480;28;20378;-67
2022/11/10 05:42:48;;;;;;;0.00;0.00;;;;;;;17.11;66.89;101816.88;2093639;28;20712;-67
2022/11/10 05:44:09;;;;;;;0.00;0.00;;;;;;;17.10;66.99;101812.53;2088485;28;20092;-67
2022/11/10 05:45:29;;;;;;;0.00;0.00;;;;;;;17.09;66.89;101810.97;2091817;28;20148;-67
2022/11/10 05:46:51;;;;;;;0.00;0.00;;;;;;;17.09;66.86;101816.44;2093026;28;20052;-67
2022/11/10 05:48:11;;;;;;;0.00;0.00;;;;;;;17.11;67.15;101808.69;2090868;28;20068;-67
2022/11/10 05:49:33;;;;;;;0.00;0.00;;;;;;;17.11;66.93;101827.78;2088324;28;20160;-67
2022/11/10 05:50:55;;;;;;;0.00;0.00;;;;;;;17.10;67.01;101815.28;2081392;28;20382;-67
2022/11/10 05:52:15;;;;;;;0.00;0.00;;;;;;;17.10;66.87;101824.25;2093096;28;20060;-67
2022/11/10 05:53:36;;;;;;;;;;;;;;;16.95;67.28;101827.06;2093483;28;20071;-67
2022/11/10 05:54:56;;;;;;;0.00;0.00;;;;;;;17.04;67.14;101828.44;2091354;28;19930;-67
2022/11/10 05:56:17;;;;;;;0.00;0.00;;;;;;;17.05;67.00;101834.66;2094591;28;20059;-67
2022/11/10 05:57:40;;;;;;;0.00;0.00;;;;;;;17.07;66.91;101830.44;2094337;28;20074;-67
2022/11/10 05:59:02;;;;;;;0.00;0.00;;;;;;;17.07;66.99;101835.09;2089578;28;20126;-67
2022/11/10 06:00:25;;;;;;;0.00;0.00;;;;;;;17.09;67.06;101847.25;2091226;28;20044;-67
2022/11/10 06:01:46;;;;;;;0.00;0.00;;;;;;;17.08;66.95;101831.22;2093102;28;20048;-67
2022/11/10 06:03:13;;;;;;;0.00;0.00;;;;;;;17.08;66.87;101842.13;2092991;28;20147;-67
2022/11/10 06:04:35;;;;;;;0.00;0.00;;;;;;;17.09;67.00;101838.25;2091009;28;20048;-67
2022/11/10 06:05:56;;;;;;;0.00;0.00;;;;;;;17.08;66.98;101837.47;2082217;28;20107;-67
2022/11/10 06:07:17;;;;;;;0.00;0.00;;;;;;;17.07;66.91;101840.56;2088296;28;20464;-67
2022/11/10 06:08:38;;;;;;;;;;;;;;;16.95;67.18;101851.63;2096298;28;20110;-67
2022/11/10 06:09:59;;;;;;;0.00;0.00;;;;;;;17.02;67.09;101849.03;2090096;28;19947;-66
2022/11/10 06:11:20;;;;;;;0.00;0.00;;;;;;;17.07;67.00;101851.47;2091087;28;20132;-67
2022/11/10 06:12:41;;;;;;;0.00;0.00;;;;;;;17.08;66.90;101853.03;2092589;28;20045;-71
2022/11/10 06:14:02;;;;;;;0.00;0.00;;;;;;;17.07;67.16;101857.72;2092449;28;20044;-74
2022/11/10 06:15:24;;;;;;;0.00;0.00;;;;;;;17.09;67.13;101862.81;2088445;28;20049;-70
2022/11/10 06:16:45;;;;;;;0.00;0.00;;;;;;;17.10;67.43;101853.47;2089279;28;20063;-68
2022/11/10 06:18:07;;;;;;;0.00;0.00;;;;;;;17.09;67.21;101858.16;2088359;28;20116;-67
2022/11/10 06:19:27;;;;;;;0.00;0.00;;;;;;;17.12;67.31;101870.28;2093495;28;20106;-67
2022/11/10 06:20:50;;;;;;;0.00;0.00;;;;;;;17.13;67.29;101866.41;2093112;28;20041;-67
2022/11/10 06:22:10;;;;;;;0.00;0.00;;;;;;;17.13;67.26;101867.19;2095079;28;20063;-67
2022/11/10 06:23:31;;;;;;;0.00;0.00;;;;;;;17.13;67.17;101872.66;2088197;28;20527;-67
2022/11/10 06:24:53;;;;;;;0.00;0.00;;;;;;;17.14;67.20;101866.03;2095747;28;20049;-67
2022/11/10 06:26:14;;;;;;;0.00;0.00;;;;;;;17.14;67.48;101859.81;2090009;28;20191;-66
2022/11/10 06:27:34;;;;;;;0.00;0.00;;;;;;;17.14;67.19;101868.75;2091517;28;20086;-67
2022/11/10 06:28:56;;;;;;;0.00;0.00;;;;;;;17.14;67.16;101876.94;2096715;28;20702;-67
2022/11/10 06:30:18;;;;;;;0.00;0.00;;;;;;;17.15;67.20;101885.94;2092789;28;20107;-67
2022/11/10 06:31:39;;;;;;;0.00;0.00;;;;;;;17.16;66.98;101879.31;2088032;28;20055;-67
2022/11/10 06:33:00;;;;;;;0.00;0.00;;;;;;;17.15;67.06;101875.03;2095342;28;20051;-67
2022/11/10 06:34:21;;;;;;;0.00;0.00;;;;;;;17.15;67.19;101883.22;2088146;28;20071;-67
2022/11/10 06:35:42;;;;;;;0.00;0.00;;;;;;;17.15;67.22;101883.22;2089807;28;20076;-67
2022/11/10 06:37:05;;;;;;;0.00;0.00;;;;;;;17.17;67.28;101889.09;2088991;28;20049;-67
2022/11/10 06:38:26;;;;;;;0.00;0.00;;;;;;;17.15;67.21;101886.75;2093571;28;20087;-67